Megalochari Vii — SVA7807 — position and weather

sailwx.info

Track history (hours):
 
Tides and Currents Weather Stations Pressure Air Temp Water Temp Dewpoint Dewpoint Depression Visibility Wind Speed Wind Dir Waves Ship Positions

Megalochari Vii

Last reported at 2018-Jun-20 11:03 UTC. Time now 2018-Jun-21 01:01 UTC.
Position N 37°57' E 023°36'.

Length 32 m; draft 5.2 m.

Type: Tug. MMSI: 241527000.

Date/timePositionNaut miles runAvg speedWind from/ knotsBaromVisibWave heightAir tempDewpointWater temp
2018-Jun-20 11:03N 37°57' E 023°36'0 0.2
2018-Jun-20 11:01N 37°57' E 023°36'0 0.7
2018-Jun-20 10:30N 37°57' E 023°36'0 0.0
2018-Jun-20 10:00N 37°57' E 023°36'0 0.0
2018-Jun-20 09:27N 37°57' E 023°36'0 0.0
2018-Jun-20 09:00N 37°57' E 023°36'0 0.0
2018-Jun-20 08:31N 37°57' E 023°36'0 0.0
2018-Jun-20 08:00N 37°57' E 023°36'0 0.0
2018-Jun-20 07:30N 37°57' E 023°36'0 0.0
2018-Jun-20 07:00N 37°57' E 023°36'0 0.0
2018-Jun-20 06:30N 37°57' E 023°36'0 0.7
2018-Jun-20 06:01N 37°57' E 023°36'0 0.1
2018-Jun-20 05:30N 37°57' E 023°36'0 0.0
2018-Jun-20 05:00N 37°57' E 023°36'0 0.0
2018-Jun-20 04:30N 37°57' E 023°36'0 0.0
2018-Jun-20 04:00N 37°57' E 023°36'0 0.0
2018-Jun-20 03:31N 37°57' E 023°36'0 0.0
2018-Jun-20 03:00N 37°57' E 023°36'0 0.0
2018-Jun-19 18:56N 37°57' E 023°36'1 1.3
2018-Jun-19 18:30N 37°57' E 023°36'0 0.2
2018-Jun-19 18:00N 37°58' E 023°36'1 1.3
2018-Jun-19 17:30N 37°57' E 023°36'0 0.0
2018-Jun-19 17:00N 37°57' E 023°36'0 0.0
2018-Jun-19 16:30N 37°57' E 023°36'0 0.0
2018-Jun-19 16:00N 37°57' E 023°36'0 0.0
2018-Jun-19 15:30N 37°57' E 023°36'0 0.0
2018-Jun-19 15:00N 37°57' E 023°36'0 0.0
2018-Jun-19 14:30N 37°57' E 023°36'0 0.0
2018-Jun-19 14:00N 37°57' E 023°36'1 1.3
2018-Jun-19 13:30N 37°58' E 023°36'0 0.4
2018-Jun-19 13:00N 37°57' E 023°36'2 3.6
2018-Jun-19 12:30N 37°56' E 023°36'0 0.5
2018-Jun-19 12:00N 37°56' E 023°36'1 1.7
2018-Jun-19 11:30N 37°57' E 023°36'0 1.0
2018-Jun-19 11:00N 37°57' E 023°36'0 0.0
2018-Jun-19 10:30N 37°57' E 023°36'0 0.0
2018-Jun-19 10:00N 37°57' E 023°36'0 0.0
2018-Jun-19 09:30N 37°57' E 023°36'0 0.0
2018-Jun-19 09:00N 37°57' E 023°36'0 0.0
2018-Jun-19 08:29N 37°57' E 023°36'0 0.0
2018-Jun-19 08:00N 37°57' E 023°36'0 0.0
2018-Jun-19 07:30N 37°57' E 023°36'0 0.0
2018-Jun-19 07:00N 37°57' E 023°36'0 0.0
2018-Jun-19 06:29N 37°57' E 023°36'0 0.0
2018-Jun-19 06:00N 37°57' E 023°36'0 0.0
2018-Jun-19 05:30N 37°57' E 023°36'0 0.0
2018-Jun-19 05:00N 37°57' E 023°36'0 0.0
2018-Jun-19 04:30N 37°57' E 023°36'0 0.0
2018-Jun-19 04:00N 37°57' E 023°36'0 0.0
2018-Jun-19 03:30N 37°57' E 023°36'0 0.0
2018-Jun-19 03:00N 37°57' E 023°36'0 0.0
2018-Jun-18 11:23N 37°57' E 023°36'1 3.4
2018-Jun-18 11:01N 37°57' E 023°35'2 3.0
2018-Jun-18 10:30N 37°57' E 023°33'0 0.1
2018-Jun-18 09:59N 37°57' E 023°33'0 0.0
2018-Jun-18 09:30N 37°57' E 023°33'0 0.0
2018-Jun-18 09:00N 37°57' E 023°33'0 0.0
2018-Jun-18 08:30N 37°57' E 023°33'0 0.0
2018-Jun-18 08:01N 37°57' E 023°33'0 0.0
2018-Jun-18 07:30N 37°57' E 023°33'1 2.8
2018-Jun-18 07:01N 37°57' E 023°35'1 2.6
2018-Jun-18 06:29N 37°57' E 023°36'0 0.0
2018-Jun-18 06:01N 37°57' E 023°36'0 0.0
2018-Jun-18 05:30N 37°57' E 023°36'0 0.0
2018-Jun-18 05:01N 37°57' E 023°36'0 0.0
2018-Jun-18 04:31N 37°57' E 023°36'0 0.1
2018-Jun-18 03:59N 37°57' E 023°36'0 0.0
2018-Jun-18 03:31N 37°57' E 023°36'0 0.0
2018-Jun-18 03:00N 37°57' E 023°36'0 0.0
2018-Jun-17 17:45N 37°57' E 023°36'1 5.4
2018-Jun-17 17:30N 37°57' E 023°35'4 8.9
2018-Jun-17 17:00N 38°00' E 023°31'510.0
2018-Jun-17 16:30N 37°59' E 023°25'2 3.9
2018-Jun-17 16:00N 37°58' E 023°23'0 0.5
2018-Jun-17 15:30N 37°58' E 023°23'1 1.8
2018-Jun-17 15:00N 37°58' E 023°24'0 0.0
2018-Jun-17 14:30N 37°58' E 023°24'1 2.4
2018-Jun-17 14:00N 37°59' E 023°25'4 9.0
2018-Jun-17 13:30N 38°01' E 023°30'4 8.1
2018-Jun-17 13:00N 37°58' E 023°33'3 5.4
2018-Jun-17 12:30N 37°57' E 023°36'0 0.0
2018-Jun-17 12:00N 37°57' E 023°36'0 0.0
2018-Jun-17 11:30N 37°57' E 023°36'0 0.0
2018-Jun-17 11:00N 37°57' E 023°36'0 0.0
2018-Jun-17 10:30N 37°57' E 023°36'0 0.0
2018-Jun-17 10:00N 37°57' E 023°36'0 0.0
2018-Jun-17 09:30N 37°57' E 023°36'0 0.0
2018-Jun-17 09:00N 37°57' E 023°36'0 0.0
2018-Jun-17 08:30N 37°57' E 023°36'0 0.0
2018-Jun-17 08:00N 37°57' E 023°36'0 0.0
2018-Jun-17 07:30N 37°57' E 023°36'0 0.0
2018-Jun-17 07:00N 37°57' E 023°36'0 0.0
2018-Jun-17 06:30N 37°57' E 023°36'0 0.0
2018-Jun-17 06:00N 37°57' E 023°36'0 0.0
2018-Jun-17 05:30N 37°57' E 023°36'0 0.1
2018-Jun-17 05:00N 37°57' E 023°36'0 0.1
2018-Jun-17 04:30N 37°57' E 023°36'0 0.9
2018-Jun-17 04:00N 37°57' E 023°36'1 1.9
2018-Jun-17 03:30N 37°56' E 023°38'1 2.3
2018-Jun-17 03:00N 37°56' E 023°36'1 2.3
2018-Jun-17 02:30N 37°57' E 023°36'0 0.0
2018-Jun-16 17:50N 37°57' E 023°36'1 2.0
2018-Jun-16 17:30N 37°58' E 023°36'1 1.5
2018-Jun-16 17:00N 37°57' E 023°36'0 0.0
2018-Jun-16 16:30N 37°57' E 023°36'1 2.6
2018-Jun-16 16:00N 37°56' E 023°37'0 0.4
2018-Jun-16 15:30N 37°56' E 023°37'1 2.3
2018-Jun-16 15:01N 37°57' E 023°36'0 0.0
2018-Jun-16 14:30N 37°57' E 023°36'0 0.0
2018-Jun-16 14:01N 37°57' E 023°36'0 0.0
2018-Jun-16 13:30N 37°57' E 023°36'0 0.0
2018-Jun-16 13:01N 37°57' E 023°36'0 0.0
2018-Jun-16 12:31N 37°57' E 023°36'0 0.0
2018-Jun-16 12:00N 37°57' E 023°36'1 1.2
2018-Jun-16 11:31N 37°58' E 023°36'2 3.3
2018-Jun-16 11:00N 37°56' E 023°36'1 2.0
2018-Jun-16 10:31N 37°57' E 023°36'0 0.0
2018-Jun-16 10:00N 37°57' E 023°36'0 0.0
2018-Jun-16 09:30N 37°57' E 023°36'0 0.0
2018-Jun-16 09:00N 37°57' E 023°36'0 0.0
2018-Jun-16 08:31N 37°57' E 023°36'0 0.0
2018-Jun-16 08:00N 37°57' E 023°36'0 0.0
2018-Jun-16 07:30N 37°57' E 023°36'0 0.0
2018-Jun-16 07:00N 37°57' E 023°36'0 0.0
2018-Jun-16 06:30N 37°57' E 023°36'0 0.0
2018-Jun-16 06:00N 37°57' E 023°36'0 0.0
2018-Jun-16 05:31N 37°57' E 023°36'0 0.0
2018-Jun-16 05:00N 37°57' E 023°36'0 0.0
2018-Jun-16 04:31N 37°57' E 023°36'0 0.0
2018-Jun-16 04:01N 37°57' E 023°36'0 0.0
2018-Jun-16 03:30N 37°57' E 023°36'0 0.7
2018-Jun-16 03:01N 37°57' E 023°36'0 0.0
2018-Jun-15 17:50N 37°57' E 023°36'1 1.6
2018-Jun-15 17:30N 37°57' E 023°37'0 0.0
2018-Jun-15 17:00N 37°57' E 023°37'0 0.0
2018-Jun-15 16:30N 37°57' E 023°37'0 0.0
2018-Jun-15 16:00N 37°57' E 023°37'1 2.0
2018-Jun-15 15:29N 37°57' E 023°35'2 3.7
2018-Jun-15 14:59N 37°57' E 023°33'0 0.0
2018-Jun-15 14:30N 37°57' E 023°33'0 0.1
2018-Jun-15 14:00N 37°57' E 023°33'0 0.0
2018-Jun-15 13:30N 37°57' E 023°33'0 0.0
2018-Jun-15 13:01N 37°57' E 023°33'0 0.0
2018-Jun-15 12:31N 37°57' E 023°33'0 0.0
2018-Jun-15 12:01N 37°57' E 023°33'0 0.0
2018-Jun-15 11:31N 37°57' E 023°33'0 0.0
2018-Jun-15 11:01N 37°57' E 023°33'0 0.0
2018-Jun-15 10:30N 37°57' E 023°33'0 0.0
2018-Jun-14 12:00N 37°57' E 023°33'0 0.0
2018-Jun-14 11:30N 37°57' E 023°33'0 0.0
2018-Jun-14 11:00N 37°57' E 023°33'0 0.0
2018-Jun-14 10:30N 37°57' E 023°33'0 0.0
2018-Jun-14 10:00N 37°57' E 023°33'0 0.0
2018-Jun-14 09:30N 37°57' E 023°33'0 0.0
2018-Jun-14 09:00N 37°57' E 023°33'0 0.0
2018-Jun-14 08:30N 37°57' E 023°33'0 0.0
2018-Jun-14 08:00N 37°57' E 023°33'  
2018-Jun-11 08:53N 37°57' E 023°33'0 0.0
2018-Jun-11 08:31N 37°57' E 023°33'0 0.1
2018-Jun-11 08:01N 37°57' E 023°33'0 0.0
2018-Jun-11 07:30N 37°57' E 023°33'2 3.2
2018-Jun-11 07:01N 37°57' E 023°35'1 1.9
2018-Jun-11 06:31N 37°57' E 023°36'0 0.0
2018-Jun-11 06:00N 37°57' E 023°36'0 0.0
2018-Jun-11 05:31N 37°57' E 023°36'0 0.0
2018-Jun-11 05:00N 37°57' E 023°36'0 0.0
2018-Jun-11 04:30N 37°57' E 023°36'0 0.0
2018-Jun-11 04:00N 37°57' E 023°36'0 0.0
2018-Jun-11 03:31N 37°57' E 023°36'0 0.0
2018-Jun-11 03:01N 37°57' E 023°36'  
Track history (hours):
 
Tides and Currents Weather Stations Pressure Air Temp Water Temp Dewpoint Dewpoint Depression Visibility Wind Speed Wind Dir Waves Ship Positions

Megalochari Vii

Last reported at 2018-Jun-20 11:03 UTC. Time now 2018-Jun-21 01:01 UTC.
Position N 37°57' E 023°36'.

Length 32 m; draft 5.2 m.

Type: Tug. MMSI: 241527000.

Date/timePositionNaut miles runAvg speedWind from/ knotsBaromVisibWave heightAir tempDewpointWater temp
2018-Jun-20 11:03N 37°57' E 023°36'0 0.2
2018-Jun-20 11:01N 37°57' E 023°36'0 0.7
2018-Jun-20 10:30N 37°57' E 023°36'0 0.0
2018-Jun-20 10:00N 37°57' E 023°36'0 0.0
2018-Jun-20 09:27N 37°57' E 023°36'0 0.0
2018-Jun-20 09:00N 37°57' E 023°36'0 0.0
2018-Jun-20 08:31N 37°57' E 023°36'0 0.0
2018-Jun-20 08:00N 37°57' E 023°36'0 0.0
2018-Jun-20 07:30N 37°57' E 023°36'0 0.0
2018-Jun-20 07:00N 37°57' E 023°36'0 0.0
2018-Jun-20 06:30N 37°57' E 023°36'0 0.7
2018-Jun-20 06:01N 37°57' E 023°36'0 0.1
2018-Jun-20 05:30N 37°57' E 023°36'0 0.0
2018-Jun-20 05:00N 37°57' E 023°36'0 0.0
2018-Jun-20 04:30N 37°57' E 023°36'0 0.0
2018-Jun-20 04:00N 37°57' E 023°36'0 0.0
2018-Jun-20 03:31N 37°57' E 023°36'0 0.0
2018-Jun-20 03:00N 37°57' E 023°36'0 0.0
2018-Jun-19 18:56N 37°57' E 023°36'1 1.3
2018-Jun-19 18:30N 37°57' E 023°36'0 0.2
2018-Jun-19 18:00N 37°58' E 023°36'1 1.3
2018-Jun-19 17:30N 37°57' E 023°36'0 0.0
2018-Jun-19 17:00N 37°57' E 023°36'0 0.0
2018-Jun-19 16:30N 37°57' E 023°36'0 0.0
2018-Jun-19 16:00N 37°57' E 023°36'0 0.0
2018-Jun-19 15:30N 37°57' E 023°36'0 0.0
2018-Jun-19 15:00N 37°57' E 023°36'0 0.0
2018-Jun-19 14:30N 37°57' E 023°36'0 0.0
2018-Jun-19 14:00N 37°57' E 023°36'1 1.3
2018-Jun-19 13:30N 37°58' E 023°36'0 0.4
2018-Jun-19 13:00N 37°57' E 023°36'2 3.6
2018-Jun-19 12:30N 37°56' E 023°36'0 0.5
2018-Jun-19 12:00N 37°56' E 023°36'1 1.7
2018-Jun-19 11:30N 37°57' E 023°36'0 1.0
2018-Jun-19 11:00N 37°57' E 023°36'0 0.0
2018-Jun-19 10:30N 37°57' E 023°36'0 0.0
2018-Jun-19 10:00N 37°57' E 023°36'0 0.0
2018-Jun-19 09:30N 37°57' E 023°36'0 0.0
2018-Jun-19 09:00N 37°57' E 023°36'0 0.0
2018-Jun-19 08:29N 37°57' E 023°36'0 0.0
2018-Jun-19 08:00N 37°57' E 023°36'0 0.0
2018-Jun-19 07:30N 37°57' E 023°36'0 0.0
2018-Jun-19 07:00N 37°57' E 023°36'0 0.0
2018-Jun-19 06:29N 37°57' E 023°36'0 0.0
2018-Jun-19 06:00N 37°57' E 023°36'0 0.0
2018-Jun-19 05:30N 37°57' E 023°36'0 0.0
2018-Jun-19 05:00N 37°57' E 023°36'0 0.0
2018-Jun-19 04:30N 37°57' E 023°36'0 0.0
2018-Jun-19 04:00N 37°57' E 023°36'0 0.0
2018-Jun-19 03:30N 37°57' E 023°36'0 0.0
2018-Jun-19 03:00N 37°57' E 023°36'0 0.0
2018-Jun-18 11:23N 37°57' E 023°36'1 3.4
2018-Jun-18 11:01N 37°57' E 023°35'2 3.0
2018-Jun-18 10:30N 37°57' E 023°33'0 0.1
2018-Jun-18 09:59N 37°57' E 023°33'0 0.0
2018-Jun-18 09:30N 37°57' E 023°33'0 0.0
2018-Jun-18 09:00N 37°57' E 023°33'0 0.0
2018-Jun-18 08:30N 37°57' E 023°33'0 0.0
2018-Jun-18 08:01N 37°57' E 023°33'0 0.0
2018-Jun-18 07:30N 37°57' E 023°33'1 2.8
2018-Jun-18 07:01N 37°57' E 023°35'1 2.6
2018-Jun-18 06:29N 37°57' E 023°36'0 0.0
2018-Jun-18 06:01N 37°57' E 023°36'0 0.0
2018-Jun-18 05:30N 37°57' E 023°36'0 0.0
2018-Jun-18 05:01N 37°57' E 023°36'0 0.0
2018-Jun-18 04:31N 37°57' E 023°36'0 0.1
2018-Jun-18 03:59N 37°57' E 023°36'0 0.0
2018-Jun-18 03:31N 37°57' E 023°36'0 0.0
2018-Jun-18 03:00N 37°57' E 023°36'0 0.0
2018-Jun-17 17:45N 37°57' E 023°36'1 5.4
2018-Jun-17 17:30N 37°57' E 023°35'4 8.9
2018-Jun-17 17:00N 38°00' E 023°31'510.0
2018-Jun-17 16:30N 37°59' E 023°25'2 3.9
2018-Jun-17 16:00N 37°58' E 023°23'0 0.5
2018-Jun-17 15:30N 37°58' E 023°23'1 1.8
2018-Jun-17 15:00N 37°58' E 023°24'0 0.0
2018-Jun-17 14:30N 37°58' E 023°24'1 2.4
2018-Jun-17 14:00N 37°59' E 023°25'4 9.0
2018-Jun-17 13:30N 38°01' E 023°30'4 8.1
2018-Jun-17 13:00N 37°58' E 023°33'3 5.4
2018-Jun-17 12:30N 37°57' E 023°36'0 0.0
2018-Jun-17 12:00N 37°57' E 023°36'0 0.0
2018-Jun-17 11:30N 37°57' E 023°36'0 0.0
2018-Jun-17 11:00N 37°57' E 023°36'0 0.0
2018-Jun-17 10:30N 37°57' E 023°36'0 0.0
2018-Jun-17 10:00N 37°57' E 023°36'0 0.0
2018-Jun-17 09:30N 37°57' E 023°36'0 0.0
2018-Jun-17 09:00N 37°57' E 023°36'0 0.0
2018-Jun-17 08:30N 37°57' E 023°36'0 0.0
2018-Jun-17 08:00N 37°57' E 023°36'0 0.0
2018-Jun-17 07:30N 37°57' E 023°36'0 0.0
2018-Jun-17 07:00N 37°57' E 023°36'0 0.0
2018-Jun-17 06:30N 37°57' E 023°36'0 0.0
2018-Jun-17 06:00N 37°57' E 023°36'0 0.0
2018-Jun-17 05:30N 37°57' E 023°36'0 0.1
2018-Jun-17 05:00N 37°57' E 023°36'0 0.1
2018-Jun-17 04:30N 37°57' E 023°36'0 0.9
2018-Jun-17 04:00N 37°57' E 023°36'1 1.9
2018-Jun-17 03:30N 37°56' E 023°38'1 2.3
2018-Jun-17 03:00N 37°56' E 023°36'1 2.3
2018-Jun-17 02:30N 37°57' E 023°36'0 0.0
2018-Jun-16 17:50N 37°57' E 023°36'1 2.0
2018-Jun-16 17:30N 37°58' E 023°36'1 1.5
2018-Jun-16 17:00N 37°57' E 023°36'0 0.0
2018-Jun-16 16:30N 37°57' E 023°36'1 2.6
2018-Jun-16 16:00N 37°56' E 023°37'0 0.4
2018-Jun-16 15:30N 37°56' E 023°37'1 2.3
2018-Jun-16 15:01N 37°57' E 023°36'0 0.0
2018-Jun-16 14:30N 37°57' E 023°36'0 0.0
2018-Jun-16 14:01N 37°57' E 023°36'0 0.0
2018-Jun-16 13:30N 37°57' E 023°36'0 0.0
2018-Jun-16 13:01N 37°57' E 023°36'0 0.0
2018-Jun-16 12:31N 37°57' E 023°36'0 0.0
2018-Jun-16 12:00N 37°57' E 023°36'1 1.2
2018-Jun-16 11:31N 37°58' E 023°36'2 3.3
2018-Jun-16 11:00N 37°56' E 023°36'1 2.0
2018-Jun-16 10:31N 37°57' E 023°36'0 0.0
2018-Jun-16 10:00N 37°57' E 023°36'0 0.0
2018-Jun-16 09:30N 37°57' E 023°36'0 0.0
2018-Jun-16 09:00N 37°57' E 023°36'0 0.0
2018-Jun-16 08:31N 37°57' E 023°36'0 0.0
2018-Jun-16 08:00N 37°57' E 023°36'0 0.0
2018-Jun-16 07:30N 37°57' E 023°36'0 0.0
2018-Jun-16 07:00N 37°57' E 023°36'0 0.0
2018-Jun-16 06:30N 37°57' E 023°36'0 0.0
2018-Jun-16 06:00N 37°57' E 023°36'0 0.0
2018-Jun-16 05:31N 37°57' E 023°36'0 0.0
2018-Jun-16 05:00N 37°57' E 023°36'0 0.0
2018-Jun-16 04:31N 37°57' E 023°36'0 0.0
2018-Jun-16 04:01N 37°57' E 023°36'0 0.0
2018-Jun-16 03:30N 37°57' E 023°36'0 0.7
2018-Jun-16 03:01N 37°57' E 023°36'0 0.0
2018-Jun-15 17:50N 37°57' E 023°36'1 1.6
2018-Jun-15 17:30N 37°57' E 023°37'0 0.0
2018-Jun-15 17:00N 37°57' E 023°37'0 0.0
2018-Jun-15 16:30N 37°57' E 023°37'0 0.0
2018-Jun-15 16:00N 37°57' E 023°37'1 2.0
2018-Jun-15 15:29N 37°57' E 023°35'2 3.7
2018-Jun-15 14:59N 37°57' E 023°33'0 0.0
2018-Jun-15 14:30N 37°57' E 023°33'0 0.1
2018-Jun-15 14:00N 37°57' E 023°33'0 0.0
2018-Jun-15 13:30N 37°57' E 023°33'0 0.0
2018-Jun-15 13:01N 37°57' E 023°33'0 0.0
2018-Jun-15 12:31N 37°57' E 023°33'0 0.0
2018-Jun-15 12:01N 37°57' E 023°33'0 0.0
2018-Jun-15 11:31N 37°57' E 023°33'0 0.0
2018-Jun-15 11:01N 37°57' E 023°33'0 0.0
2018-Jun-15 10:30N 37°57' E 023°33'0 0.0
2018-Jun-14 12:00N 37°57' E 023°33'0 0.0
2018-Jun-14 11:30N 37°57' E 023°33'0 0.0
2018-Jun-14 11:00N 37°57' E 023°33'0 0.0
2018-Jun-14 10:30N 37°57' E 023°33'0 0.0
2018-Jun-14 10:00N 37°57' E 023°33'0 0.0
2018-Jun-14 09:30N 37°57' E 023°33'0 0.0
2018-Jun-14 09:00N 37°57' E 023°33'0 0.0
2018-Jun-14 08:30N 37°57' E 023°33'0 0.0
2018-Jun-14 08:00N 37°57' E 023°33'  
2018-Jun-11 08:53N 37°57' E 023°33'0 0.0
2018-Jun-11 08:31N 37°57' E 023°33'0 0.1
2018-Jun-11 08:01N 37°57' E 023°33'0 0.0
2018-Jun-11 07:30N 37°57' E 023°33'2 3.2
2018-Jun-11 07:01N 37°57' E 023°35'1 1.9
2018-Jun-11 06:31N 37°57' E 023°36'0 0.0
2018-Jun-11 06:00N 37°57' E 023°36'0 0.0
2018-Jun-11 05:31N 37°57' E 023°36'0 0.0
2018-Jun-11 05:00N 37°57' E 023°36'0 0.0
2018-Jun-11 04:30N 37°57' E 023°36'0 0.0
2018-Jun-11 04:00N 37°57' E 023°36'0 0.0
2018-Jun-11 03:31N 37°57' E 023°36'0 0.0
2018-Jun-11 03:01N 37°57' E 023°36'  

Dump ship's entire track history